createdAt,value
2023-09-13T00:04:15.183Z,100.00
2023-09-13T00:09:18.350Z,100.00
2023-09-13T00:14:21.480Z,100.00
2023-09-13T00:19:24.413Z,100.00
2023-09-13T00:24:27.352Z,100.00
2023-09-13T00:29:33.159Z,100.00
2023-09-13T00:34:35.876Z,100.00
2023-09-13T00:39:39.552Z,100.00
2023-09-13T00:44:42.378Z,100.00
2023-09-13T00:49:46.727Z,100.00
2023-09-13T00:54:49.960Z,100.00
2023-09-13T00:59:53.538Z,100.00
2023-09-13T01:04:56.518Z,100.00
2023-09-13T01:21:10.469Z,100.00
2023-09-13T01:26:22.187Z,100.00
2023-09-13T01:31:26.344Z,100.00
2023-09-13T01:36:29.922Z,100.00
2023-09-13T01:41:38.828Z,100.00
2023-09-13T01:46:44.806Z,100.00
2023-09-13T01:51:48.566Z,100.00
2023-09-13T01:56:51.608Z,100.00
2023-09-13T02:01:54.761Z,100.00
2023-09-13T02:06:57.710Z,100.00
2023-09-13T02:12:00.646Z,100.00
2023-09-13T02:17:03.980Z,100.00
2023-09-13T02:22:26.845Z,100.00
2023-09-13T02:27:30.726Z,100.00
2023-09-13T02:32:33.666Z,100.00
2023-09-13T02:37:36.995Z,100.00
2023-09-13T02:42:39.948Z,100.00
2023-09-13T02:47:43.461Z,100.00
2023-09-13T02:52:46.171Z,100.00
2023-09-13T02:57:49.159Z,100.00
2023-09-13T03:02:52.741Z,100.00
2023-09-13T03:07:58.432Z,100.00
2023-09-13T03:13:01.420Z,100.00
2023-09-13T03:18:04.764Z,100.00
2023-09-13T03:23:07.783Z,100.00
2023-09-13T03:28:11.019Z,100.00
2023-09-13T03:33:14.527Z,100.00
2023-09-13T03:38:17.468Z,100.00
2023-09-13T03:43:20.404Z,100.00
2023-09-13T03:48:23.590Z,100.00
2023-09-13T03:53:27.290Z,100.00
2023-09-13T03:58:31.226Z,100.00
2023-09-13T04:03:34.272Z,100.00
2023-09-13T04:08:37.277Z,100.00
2023-09-13T04:13:40.403Z,100.00
2023-09-13T04:18:43.537Z,100.00
2023-09-13T04:23:46.910Z,96.99
2023-09-13T04:28:49.976Z,92.75
2023-09-13T04:33:55.583Z,93.99
2023-09-13T04:39:06.477Z,95.93
2023-09-13T04:44:09.544Z,95.16
2023-09-13T04:49:14.111Z,96.57
2023-09-13T04:54:17.018Z,92.98
2023-09-13T04:59:20.352Z,96.21
2023-09-13T05:04:24.462Z,93.94
2023-09-13T05:09:27.544Z,92.72
2023-09-13T05:14:30.429Z,94.91
2023-09-13T05:19:33.231Z,97.17
2023-09-13T05:24:36.317Z,97.16
2023-09-13T05:29:39.364Z,99.74
2023-09-13T05:34:46.004Z,99.43
2023-09-13T05:39:55.150Z,100.00
2023-09-13T05:44:58.109Z,100.00
2023-09-13T05:50:01.624Z,100.00
2023-09-13T05:55:06.893Z,100.00
2023-09-13T06:00:11.076Z,100.00
2023-09-13T06:05:16.907Z,100.00
2023-09-13T06:10:19.932Z,100.00
2023-09-13T06:15:23.187Z,100.00
2023-09-13T06:20:28.248Z,100.00
2023-09-13T06:25:31.256Z,100.00
2023-09-13T06:30:34.157Z,100.00
2023-09-13T06:35:38.904Z,100.00
2023-09-13T06:40:46.034Z,100.00
2023-09-13T06:46:03.468Z,100.00
2023-09-13T06:56:14.422Z,99.60
2023-09-13T07:01:42.669Z,97.41
2023-09-13T07:06:43.543Z,99.83
2023-09-13T07:11:46.430Z,97.34
2023-09-13T07:16:50.149Z,96.32
2023-09-13T07:21:53.088Z,94.14
2023-09-13T07:26:58.971Z,89.86
2023-09-13T07:32:04.161Z,87.02
2023-09-13T07:37:07.164Z,84.12
2023-09-13T07:42:10.574Z,84.38
2023-09-13T07:47:13.885Z,82.43
2023-09-13T07:52:16.736Z,78.35
2023-09-13T07:58:02.382Z,76.34
2023-09-13T08:03:06.098Z,76.66
2023-09-13T08:08:10.803Z,76.77
2023-09-13T08:13:13.656Z,73.80
2023-09-13T08:18:16.733Z,71.21
2023-09-13T08:23:19.583Z,68.38
2023-09-13T08:28:22.427Z,65.96
2023-09-13T08:33:25.300Z,67.51
2023-09-13T08:38:28.206Z,65.15
2023-09-13T08:43:33.776Z,64.21
2023-09-13T08:48:38.778Z,60.81
2023-09-13T08:53:42.678Z,59.37
2023-09-13T08:58:46.091Z,61.71
2023-09-13T09:03:50.356Z,61.91
2023-09-13T09:08:54.872Z,60.71
2023-09-13T09:14:00.463Z,59.74
2023-09-13T09:19:06.287Z,58.37
2023-09-13T09:24:09.084Z,56.30
2023-09-13T09:29:16.585Z,58.06
2023-09-13T09:34:19.562Z,56.94
2023-09-13T09:39:23.607Z,58.50
2023-09-13T09:44:30.355Z,58.84
2023-09-13T09:49:33.463Z,56.74
2023-09-13T09:54:38.497Z,57.90
2023-09-13T09:59:41.520Z,60.34
2023-09-13T10:04:52.814Z,60.77
2023-09-13T10:09:57.012Z,89.23
2023-09-13T10:15:05.533Z,100.00
2023-09-13T10:20:10.243Z,100.00
2023-09-13T10:25:17.466Z,100.00
2023-09-13T10:30:26.356Z,100.00
2023-09-13T10:35:34.087Z,100.00
2023-09-13T10:40:45.458Z,100.00
2023-09-13T10:45:49.200Z,100.00
2023-09-13T10:50:55.648Z,100.00
2023-09-13T10:55:58.861Z,100.00
2023-09-13T11:01:02.036Z,100.00
2023-09-13T11:06:05.547Z,100.00
2023-09-13T11:11:19.579Z,100.00
2023-09-13T11:16:24.992Z,100.00
2023-09-13T11:21:56.210Z,100.00
2023-09-13T11:27:31.094Z,100.00
2023-09-13T11:32:34.537Z,100.00
2023-09-13T11:37:37.823Z,100.00
2023-09-13T11:42:58.600Z,100.00
2023-09-13T11:48:07.066Z,100.00
2023-09-13T11:53:20.642Z,100.00
2023-09-13T11:58:50.901Z,100.00
2023-09-13T12:09:18.646Z,100.00
2023-09-13T12:14:39.390Z,100.00
2023-09-13T12:19:48.923Z,100.00
2023-09-13T12:25:00.309Z,100.00
2023-09-13T12:30:07.891Z,100.00
2023-09-13T12:35:11.467Z,95.36
2023-09-13T12:40:17.892Z,94.10
2023-09-13T12:45:21.231Z,96.84
2023-09-13T12:55:51.567Z,98.98
2023-09-13T13:00:58.145Z,99.25
2023-09-13T13:06:03.463Z,100.00
2023-09-13T13:11:07.743Z,100.00
2023-09-13T13:16:32.538Z,100.00
2023-09-13T13:21:43.113Z,100.00
2023-09-13T13:26:46.035Z,100.00
2023-09-13T13:31:49.069Z,100.00
2023-09-13T13:36:54.965Z,100.00
2023-09-13T13:41:59.913Z,100.00
2023-09-13T13:47:22.082Z,100.00
2023-09-13T13:52:24.900Z,100.00
2023-09-13T13:57:27.839Z,100.00
2023-09-13T14:02:37.796Z,100.00
2023-09-13T14:07:40.763Z,100.00
2023-09-13T14:12:43.846Z,100.00
2023-09-13T14:17:46.694Z,100.00
2023-09-13T14:22:49.409Z,100.00
2023-09-13T14:28:08.958Z,100.00
2023-09-13T14:33:18.146Z,100.00
2023-09-13T14:38:22.136Z,100.00
2023-09-13T14:43:24.955Z,100.00
2023-09-13T14:48:27.723Z,100.00
2023-09-13T14:53:49.362Z,100.00
2023-09-13T14:58:52.307Z,100.00
2023-09-13T15:03:55.401Z,100.00
2023-09-13T15:08:59.549Z,100.00
2023-09-13T15:14:02.276Z,100.00
2023-09-13T15:19:05.117Z,100.00
2023-09-13T15:24:08.188Z,100.00
2023-09-13T15:29:11.013Z,100.00
2023-09-13T15:34:13.788Z,100.00
2023-09-13T15:39:18.033Z,100.00
2023-09-13T15:44:20.661Z,100.00
2023-09-13T15:49:27.265Z,100.00
2023-09-13T15:54:30.119Z,100.00
2023-09-13T15:59:33.933Z,100.00
2023-09-13T16:04:36.898Z,100.00
2023-09-13T16:09:39.875Z,100.00
2023-09-13T16:14:42.882Z,100.00
2023-09-13T16:19:45.799Z,100.00
2023-09-13T16:24:48.478Z,100.00
2023-09-13T16:29:51.193Z,100.00
2023-09-13T16:34:54.343Z,100.00
2023-09-13T16:39:59.968Z,100.00
2023-09-13T16:45:03.478Z,100.00
2023-09-13T16:50:08.659Z,100.00
2023-09-13T16:55:11.453Z,100.00
2023-09-13T17:00:14.540Z,100.00
2023-09-13T17:05:17.495Z,100.00
2023-09-13T17:10:20.471Z,100.00
2023-09-13T17:15:23.710Z,100.00
2023-09-13T17:20:33.312Z,100.00
2023-09-13T17:25:37.178Z,100.00
2023-09-13T17:30:40.210Z,100.00
2023-09-13T17:35:43.321Z,100.00
2023-09-13T17:40:47.871Z,100.00
2023-09-13T17:45:51.979Z,100.00
2023-09-13T17:50:55.844Z,100.00
2023-09-13T17:55:59.256Z,100.00
2023-09-13T18:01:02.005Z,100.00
2023-09-13T18:06:05.004Z,100.00
2023-09-13T18:11:08.062Z,100.00
2023-09-13T18:16:20.765Z,100.00
2023-09-13T18:21:24.244Z,100.00
2023-09-13T18:26:26.958Z,100.00
2023-09-13T18:31:29.838Z,100.00
2023-09-13T18:36:32.671Z,100.00
2023-09-13T18:41:35.896Z,100.00
2023-09-13T18:46:38.953Z,100.00
2023-09-13T18:51:43.564Z,100.00
2023-09-13T18:56:48.715Z,100.00
2023-09-13T19:01:51.816Z,100.00
2023-09-13T19:07:08.464Z,100.00
2023-09-13T19:12:12.984Z,100.00
2023-09-13T19:17:15.837Z,100.00
2023-09-13T19:22:18.566Z,100.00
2023-09-13T19:27:21.776Z,100.00
2023-09-13T19:32:24.814Z,100.00
2023-09-13T19:37:27.999Z,100.00
2023-09-13T19:42:31.547Z,100.00
2023-09-13T19:47:34.586Z,100.00
2023-09-13T19:52:37.334Z,100.00
2023-09-13T19:57:40.190Z,100.00
2023-09-13T20:02:43.222Z,100.00
2023-09-13T20:07:46.243Z,100.00
2023-09-13T20:12:48.968Z,100.00
2023-09-13T20:17:52.080Z,100.00
2023-09-13T20:22:55.839Z,100.00
2023-09-13T20:27:59.283Z,100.00
2023-09-13T20:33:03.829Z,100.00
2023-09-13T20:38:08.580Z,100.00
2023-09-13T20:43:12.065Z,100.00
2023-09-13T20:48:15.336Z,100.00
2023-09-13T20:53:18.122Z,100.00
2023-09-13T20:58:21.261Z,100.00
2023-09-13T21:03:24.810Z,100.00
2023-09-13T21:08:27.697Z,100.00
2023-09-13T21:13:30.318Z,100.00
2023-09-13T21:18:33.270Z,100.00
2023-09-13T21:23:36.081Z,100.00
2023-09-13T21:28:40.698Z,100.00
2023-09-13T21:33:45.997Z,100.00
2023-09-13T21:38:49.646Z,100.00
2023-09-13T21:43:52.336Z,100.00
2023-09-13T21:48:55.293Z,100.00
2023-09-13T21:53:58.153Z,100.00
2023-09-13T21:59:01.069Z,100.00
2023-09-13T22:04:04.400Z,100.00
2023-09-13T22:09:07.433Z,100.00
2023-09-13T22:14:10.469Z,100.00
2023-09-13T22:19:13.548Z,100.00
2023-09-13T22:24:16.477Z,100.00
2023-09-13T22:29:19.311Z,100.00
2023-09-13T22:34:22.087Z,100.00
2023-09-13T22:39:25.321Z,100.00
2023-09-13T22:44:28.389Z,100.00
2023-09-13T22:49:32.379Z,100.00
2023-09-13T22:54:35.412Z,100.00
2023-09-13T22:59:38.301Z,100.00
2023-09-13T23:04:43.542Z,100.00
2023-09-13T23:09:46.729Z,100.00
2023-09-13T23:14:49.719Z,100.00
2023-09-13T23:19:52.391Z,100.00
2023-09-13T23:24:55.219Z,100.00
2023-09-13T23:29:58.214Z,100.00
2023-09-13T23:35:01.081Z,100.00
2023-09-13T23:40:07.449Z,100.00
2023-09-13T23:45:10.862Z,100.00
2023-09-13T23:50:13.769Z,100.00
2023-09-13T23:55:16.794Z,100.00
